Time;durP1;ratioP1;P1;durP2;ratioP2;P2;SDS_P1;SDS_P2;PMS_P1;PMS_P2;Temp;Humidity;BMP_temperature;BMP_pressure;BME280_temperature;BME280_humidity;BME280_pressure;Samples;Min_cycle;Max_cycle;Signal;HPM_P1;HPM_P2
2022/07/20 00:01:23;;;;;;;6.82;3.13;;;;;;;;;;5079112;28;20019;-86
2022/07/20 00:03:49;;;;;;;6.43;3.35;;;;;;;;;;5061724;28;20028;-86
2022/07/20 00:06:15;;;;;;;8.68;4.05;;;;;;;;;;5062077;28;20048;-86
2022/07/20 00:11:25;;;;;;;6.22;3.30;;;;;;;;;;5059824;28;20056;-86
2022/07/20 00:13:56;;;;;;;5.25;3.17;;;;;;;;;;5041811;28;20064;-86
2022/07/20 00:16:23;;;;;;;5.55;3.00;;;;;;;;;;5041568;28;20017;-86
2022/07/20 00:18:49;;;;;;;6.07;3.35;;;;;;;;;;5042196;28;20040;-86
2022/07/20 00:21:15;;;;;;;8.68;3.92;;;;;;;;;;5042125;28;20028;-86
2022/07/20 00:23:41;;;;;;;6.78;3.63;;;;;;;;;;5040496;28;20028;-86
2022/07/20 00:26:08;;;;;;;5.80;3.10;;;;;;;;;;5031429;28;20035;-87
2022/07/20 00:28:34;;;;;;;6.60;3.30;;;;;;;;;;5041687;28;20045;-86
2022/07/20 00:31:00;;;;;;;8.90;3.53;;;;;;;;;;5026502;28;20116;-86
2022/07/20 00:33:26;;;;;;;9.63;3.00;;;;;;;;;;5058527;28;20479;-87
2022/07/20 00:35:52;;;;;;;6.38;3.47;;;;;;;;;;5057166;28;20025;-86
2022/07/20 00:38:18;;;;;;;6.55;3.50;;;;;;;;;;5032206;28;20068;-86
2022/07/20 00:40:44;;;;;;;7.85;3.78;;;;;;;;;;5020024;28;20391;-86
2022/07/20 00:43:10;;;;;;;8.40;3.35;;;;;;;;;;5019234;28;20029;-86
2022/07/20 00:45:36;;;;;;;6.45;3.08;;;;;;;;;;5024274;28;20489;-86
2022/07/20 00:48:02;;;;;;;5.72;3.10;;;;;;;;;;5061303;28;20111;-86
2022/07/20 00:50:28;;;;;;;7.00;3.13;;;;;;;;;;5045567;28;20030;-86
2022/07/20 00:52:55;;;;;;;8.25;3.40;;;;;;;;;;5076245;28;20074;-86
2022/07/20 00:55:21;;;;;;;5.05;2.80;;;;;;;;;;5063546;28;20035;-86
2022/07/20 00:57:47;;;;;;;6.28;3.03;;;;;;;;;;5055773;28;20380;-86
2022/07/20 01:00:14;;;;;;;6.53;3.92;;;;;;;;;;5039575;28;20398;-86
2022/07/20 01:02:40;;;;;;;5.78;3.33;;;;;;;;;;5038378;28;20026;-86
2022/07/20 01:05:13;;;;;;;8.35;3.78;;;;;;;;;;5021943;28;20029;-86
2022/07/20 01:07:40;;;;;;;7.03;3.30;;;;;;;;;;5033738;28;20029;-86
2022/07/20 01:10:06;;;;;;;10.63;3.20;;;;;;;;;;5055500;28;20075;-86
2022/07/20 01:12:32;;;;;;;7.28;3.40;;;;;;;;;;5038418;28;20084;-86
2022/07/20 01:14:58;;;;;;;5.90;3.63;;;;;;;;;;5020073;28;20026;-86
2022/07/20 01:17:25;;;;;;;5.05;3.40;;;;;;;;;;5039046;28;20056;-86
2022/07/20 01:19:51;;;;;;;7.75;4.28;;;;;;;;;;5047996;28;20033;-86
2022/07/20 01:22:17;;;;;;;5.35;3.13;;;;;;;;;;5050590;28;20024;-86
2022/07/20 01:24:43;;;;;;;8.20;3.72;;;;;;;;;;5060625;28;20405;-86
2022/07/20 01:27:09;;;;;;;8.23;3.85;;;;;;;;;;5041310;28;20047;-86
2022/07/20 01:29:35;;;;;;;7.30;3.55;;;;;;;;;;5039930;28;20044;-86
2022/07/20 01:32:01;;;;;;;6.05;3.78;;;;;;;;;;5039738;28;20031;-86
2022/07/20 01:34:27;;;;;;;6.22;3.28;;;;;;;;;;5040938;28;20025;-86
2022/07/20 01:36:53;;;;;;;6.63;3.42;;;;;;;;;;5041338;28;20467;-86
2022/07/20 01:39:19;;;;;;;5.22;3.28;;;;;;;;;;5040233;28;20024;-86
2022/07/20 01:41:47;;;;;;;8.10;3.67;;;;;;;;;;5053178;28;20036;-86
2022/07/20 01:44:14;;;;;;;5.28;3.55;;;;;;;;;;5061579;28;20025;-86
2022/07/20 01:46:40;;;;;;;6.88;3.35;;;;;;;;;;5064937;28;20024;-86
2022/07/20 01:49:06;;;;;;;5.15;2.92;;;;;;;;;;5049044;28;20021;-86
2022/07/20 01:51:32;;;;;;;7.85;3.83;;;;;;;;;;5038893;28;20036;-86
2022/07/20 01:53:58;;;;;;;6.90;3.35;;;;;;;;;;5022024;28;20035;-86
2022/07/20 01:56:24;;;;;;;6.22;3.55;;;;;;;;;;5020368;28;20124;-86
2022/07/20 01:58:50;;;;;;;7.28;3.25;;;;;;;;;;5042398;28;20100;-86
2022/07/20 02:01:16;;;;;;;8.18;3.47;;;;;;;;;;5041025;28;20037;-86
2022/07/20 02:03:42;;;;;;;8.68;3.85;;;;;;;;;;5039625;28;20060;-86
2022/07/20 02:06:08;;;;;;;8.10;3.75;;;;;;;;;;5038800;28;20032;-86
2022/07/20 02:08:37;;;;;;;5.93;3.60;;;;;;;;;;5051111;28;20018;-86
2022/07/20 02:11:03;;;;;;;6.93;3.90;;;;;;;;;;5024090;28;20026;-86
2022/07/20 02:13:29;;;;;;;6.05;3.92;;;;;;;;;;5050385;28;20065;-86
2022/07/20 02:18:39;;;;;;;6.00;3.45;;;;;;;;;;5047352;28;20040;-86
2022/07/20 02:21:05;;;;;;;6.40;4.00;;;;;;;;;;5061719;28;20029;-86
2022/07/20 02:23:31;;;;;;;7.95;3.42;;;;;;;;;;5049705;28;20074;-86
2022/07/20 02:25:57;;;;;;;5.15;3.10;;;;;;;;;;5040905;28;20036;-86
2022/07/20 02:28:23;;;;;;;6.88;3.58;;;;;;;;;;5034971;28;20037;-86
2022/07/20 02:30:49;;;;;;;5.65;3.78;;;;;;;;;;5052538;28;20048;-85
2022/07/20 02:33:15;;;;;;;5.50;3.60;;;;;;;;;;5044989;28;20108;-85
2022/07/20 02:35:41;;;;;;;5.78;3.33;;;;;;;;;;5037651;28;20029;-85
2022/07/20 02:38:07;;;;;;;5.75;3.72;;;;;;;;;;5040059;28;20044;-87
2022/07/20 02:40:33;;;;;;;7.05;3.78;;;;;;;;;;5040485;28;20029;-86
2022/07/20 02:42:59;;;;;;;7.32;3.80;;;;;;;;;;5039938;28;20488;-86
2022/07/20 02:45:25;;;;;;;7.40;3.78;;;;;;;;;;5037758;28;20029;-85
2022/07/20 02:47:51;;;;;;;5.93;3.30;;;;;;;;;;5039093;28;20086;-85
2022/07/20 02:50:18;;;;;;;6.55;3.63;;;;;;;;;;5038957;28;20021;-85
2022/07/20 02:52:44;;;;;;;6.25;3.50;;;;;;;;;;5025407;28;20097;-86
2022/07/20 02:55:11;;;;;;;6.13;3.70;;;;;;;;;;5044306;28;20025;-85
2022/07/20 02:57:37;;;;;;;6.03;3.40;;;;;;;;;;5052543;28;20036;-85
2022/07/20 03:00:07;;;;;;;7.70;3.50;;;;;;;;;;5039701;28;20021;-86
2022/07/20 03:02:33;;;;;;;6.03;3.55;;;;;;;;;;5055843;28;20026;-86
2022/07/20 03:04:59;;;;;;;8.05;4.13;;;;;;;;;;5039761;28;20028;-85
2022/07/20 03:07:25;;;;;;;7.25;3.90;;;;;;;;;;5033831;28;20115;-86
2022/07/20 03:09:51;;;;;;;5.57;3.85;;;;;;;;;;5038171;28;20073;-85
2022/07/20 03:12:17;;;;;;;5.43;3.63;;;;;;;;;;5038075;28;20517;-85
2022/07/20 03:14:43;;;;;;;6.15;3.80;;;;;;;;;;5038691;28;20021;-85
2022/07/20 03:17:09;;;;;;;7.60;3.47;;;;;;;;;;5034740;28;20490;-85
2022/07/20 03:19:35;;;;;;;6.25;3.70;;;;;;;;;;5036586;28;20049;-85
2022/07/20 03:22:01;;;;;;;8.68;3.95;;;;;;;;;;5018149;28;20026;-85
2022/07/20 03:24:27;;;;;;;6.40;3.88;;;;;;;;;;5053898;28;20028;-86
2022/07/20 03:26:53;;;;;;;5.25;3.72;;;;;;;;;;5040445;28;20041;-86
2022/07/20 03:29:19;;;;;;;7.47;3.80;;;;;;;;;;5057523;28;20674;-85
2022/07/20 03:31:45;;;;;;;6.90;3.75;;;;;;;;;;5057714;28;20028;-85
2022/07/20 03:34:11;;;;;;;6.65;3.30;;;;;;;;;;5043188;28;20025;-85
2022/07/20 03:36:37;;;;;;;7.30;3.40;;;;;;;;;;5035376;28;20739;-86
2022/07/20 03:39:03;;;;;;;5.72;3.40;;;;;;;;;;5056441;28;20028;-85
2022/07/20 03:41:29;;;;;;;6.55;3.40;;;;;;;;;;5058660;28;20025;-86
2022/07/20 03:43:55;;;;;;;6.25;3.80;;;;;;;;;;5040523;28;20021;-85
2022/07/20 03:46:21;;;;;;;6.78;3.75;;;;;;;;;;5035919;28;20025;-88
2022/07/20 03:48:47;;;;;;;5.47;3.38;;;;;;;;;;5051868;28;20025;-86
2022/07/20 03:51:13;;;;;;;5.75;3.67;;;;;;;;;;5036926;28;20474;-85
2022/07/20 03:53:39;;;;;;;6.35;3.60;;;;;;;;;;5023790;28;20113;-85
2022/07/20 03:56:05;;;;;;;5.65;3.30;;;;;;;;;;5035039;28;20032;-86
2022/07/20 03:58:31;;;;;;;7.38;3.50;;;;;;;;;;5035470;28;20063;-86
2022/07/20 04:00:57;;;;;;;6.35;3.70;;;;;;;;;;5034849;28;20033;-86
2022/07/20 04:03:23;;;;;;;7.20;3.60;;;;;;;;;;5049235;28;20395;-86
2022/07/20 04:05:49;;;;;;;6.30;3.13;;;;;;;;;;5034431;28;20021;-86
2022/07/20 04:08:16;;;;;;;7.82;3.60;;;;;;;;;;5034026;28;20033;-85
2022/07/20 04:10:42;;;;;;;6.72;3.60;;;;;;;;;;5056427;28;20017;-85
2022/07/20 04:13:08;;;;;;;6.35;3.80;;;;;;;;;;5054881;28;20666;-86
2022/07/20 04:15:34;;;;;;;8.00;3.80;;;;;;;;;;5024756;28;20020;-85
2022/07/20 04:18:00;;;;;;;6.95;3.83;;;;;;;;;;5038016;28;20033;-85
2022/07/20 04:20:26;;;;;;;6.43;3.47;;;;;;;;;;5034199;28;20050;-85
2022/07/20 04:22:52;;;;;;;6.15;3.58;;;;;;;;;;5016469;28;20031;-85
2022/07/20 04:25:19;;;;;;;6.38;3.45;;;;;;;;;;5051421;28;20029;-85
2022/07/20 04:27:45;;;;;;;8.00;4.18;;;;;;;;;;5038861;28;20529;-85
2022/07/20 04:30:11;;;;;;;8.50;3.42;;;;;;;;;;5017091;28;20502;-85
2022/07/20 04:32:37;;;;;;;10.32;4.30;;;;;;;;;;5016637;28;20029;-85
2022/07/20 04:35:03;;;;;;;7.32;3.65;;;;;;;;;;5032130;28;20051;-85
2022/07/20 04:37:29;;;;;;;13.52;5.00;;;;;;;;;;5031985;28;20120;-86
2022/07/20 04:39:55;;;;;;;6.93;3.92;;;;;;;;;;5015910;28;20084;-87
2022/07/20 04:42:21;;;;;;;8.75;3.70;;;;;;;;;;5016653;28;20510;-86
2022/07/20 04:44:47;;;;;;;9.70;3.95;;;;;;;;;;5057987;28;20028;-85
2022/07/20 04:47:13;;;;;;;10.07;4.45;;;;;;;;;;5036813;28;20432;-86
2022/07/20 04:49:39;;;;;;;11.15;4.22;;;;;;;;;;5036292;28;20021;-85
2022/07/20 04:52:05;;;;;;;16.02;3.97;;;;;;;;;;5053305;28;20021;-86
2022/07/20 04:54:31;;;;;;;8.82;4.22;;;;;;;;;;5035463;28;20044;-85
2022/07/20 04:56:57;;;;;;;7.03;4.40;;;;;;;;;;5056799;28;20075;-85
2022/07/20 04:59:23;;;;;;;9.13;4.05;;;;;;;;;;5036675;28;20024;-86
2022/07/20 05:01:49;;;;;;;7.22;3.70;;;;;;;;;;5036755;28;20438;-86
2022/07/20 05:04:15;;;;;;;10.10;3.83;;;;;;;;;;5035475;28;20029;-85
2022/07/20 05:06:42;;;;;;;9.88;3.78;;;;;;;;;;5034970;28;20029;-85
2022/07/20 05:09:10;;;;;;;10.23;4.35;;;;;;;;;;5051269;28;20139;-85
2022/07/20 05:11:36;;;;;;;11.43;4.20;;;;;;;;;;5035473;28;20051;-85
2022/07/20 05:14:02;;;;;;;7.93;3.80;;;;;;;;;;5053096;28;20036;-85
2022/07/20 05:16:28;;;;;;;10.38;4.30;;;;;;;;;;5053071;28;20032;-85
2022/07/20 05:18:54;;;;;;;11.88;4.63;;;;;;;;;;5035333;28;20036;-86
2022/07/20 05:21:20;;;;;;;8.60;4.22;;;;;;;;;;5052219;28;20126;-86
2022/07/20 05:23:46;;;;;;;7.07;3.95;;;;;;;;;;5031020;28;20380;-85
2022/07/20 05:26:12;;;;;;;8.05;4.75;;;;;;;;;;5030379;28;20033;-85
2022/07/20 05:28:41;;;;;;;8.35;4.90;;;;;;;;;;5035149;28;20132;-86
2022/07/20 05:31:08;;;;;;;8.77;5.50;;;;;;;;;;5034304;28;20029;-85
2022/07/20 05:33:34;;;;;;;8.88;5.32;;;;;;;;;;5033888;28;20501;-85
2022/07/20 05:36:02;;;;;;;11.23;5.47;;;;;;;;;;5054791;28;20426;-84
2022/07/20 05:38:28;;;;;;;8.57;5.32;;;;;;;;;;5073053;28;20027;-85
2022/07/20 05:40:54;;;;;;;6.63;4.85;;;;;;;;;;5041512;28;20029;-85
2022/07/20 05:43:20;;;;;;;9.30;5.72;;;;;;;;;;5048506;28;20094;-84
2022/07/20 05:45:46;;;;;;;8.82;5.80;;;;;;;;;;5037506;28;20475;-85
2022/07/20 05:48:13;;;;;;;8.23;5.53;;;;;;;;;;5033947;28;20028;-85
2022/07/20 05:50:39;;;;;;;13.43;6.25;;;;;;;;;;5033212;28;20410;-85
2022/07/20 05:53:06;;;;;;;11.35;5.47;;;;;;;;;;5051567;28;20063;-85
2022/07/20 05:55:32;;;;;;;11.35;6.20;;;;;;;;;;5022635;28;20074;-85
2022/07/20 05:57:59;;;;;;;11.98;5.63;;;;;;;;;;5029475;28;20025;-85
2022/07/20 06:00:25;;;;;;;8.43;6.10;;;;;;;;;;5048833;28;20024;-85
2022/07/20 06:02:51;;;;;;;9.68;5.50;;;;;;;;;;5052735;28;20021;-85
2022/07/20 06:05:17;;;;;;;10.85;4.90;;;;;;;;;;5036158;28;20037;-85
2022/07/20 06:07:43;;;;;;;11.40;5.97;;;;;;;;;;5018543;28;20076;-84
2022/07/20 06:10:10;;;;;;;10.07;5.57;;;;;;;;;;5030122;28;20524;-84
2022/07/20 06:12:36;;;;;;;9.98;5.40;;;;;;;;;;5039146;28;20478;-84
2022/07/20 06:15:02;;;;;;;10.25;5.20;;;;;;;;;;5036500;28;20029;-85
2022/07/20 06:17:39;;;;;;;9.43;5.00;;;;;;;;;;5053814;28;20020;-84
2022/07/20 06:20:06;;;;;;;9.30;5.25;;;;;;;;;;5054552;28;20035;-84
2022/07/20 06:22:32;;;;;;;8.40;5.35;;;;;;;;;;5038073;28;20029;-84
2022/07/20 06:24:58;;;;;;;12.45;5.35;;;;;;;;;;5051984;28;20040;-84
2022/07/20 06:27:24;;;;;;;8.48;5.47;;;;;;;;;;5049429;28;20040;-84
2022/07/20 06:29:50;;;;;;;9.75;5.35;;;;;;;;;;5054708;28;20513;-85
2022/07/20 06:32:16;;;;;;;11.10;5.45;;;;;;;;;;5037043;28;20033;-84
2022/07/20 06:34:43;;;;;;;9.57;5.22;;;;;;;;;;5032789;28;20026;-84
2022/07/20 06:37:09;;;;;;;9.43;5.35;;;;;;;;;;5043787;28;20024;-84
2022/07/20 06:39:35;;;;;;;11.98;5.75;;;;;;;;;;5055252;28;20085;-84
2022/07/20 06:42:00;;;;;;;9.55;6.20;;;;;;;;;;5034720;28;20144;-84
2022/07/20 06:44:26;;;;;;;11.02;6.10;;;;;;;;;;5048596;28;20013;-84
2022/07/20 06:46:52;;;;;;;12.13;5.82;;;;;;;;;;5048160;28;20021;-84
2022/07/20 06:49:19;;;;;;;9.20;5.45;;;;;;;;;;5039899;28;20021;-84
2022/07/20 06:51:45;;;;;;;7.50;5.28;;;;;;;;;;5045641;28;20095;-85
2022/07/20 06:54:11;;;;;;;9.52;5.50;;;;;;;;;;5030430;28;20036;-85
2022/07/20 06:56:37;;;;;;;8.77;5.47;;;;;;;;;;5019082;28;20471;-84
2022/07/20 06:59:03;;;;;;;9.52;5.85;;;;;;;;;;5037268;28;20020;-84
2022/07/20 07:01:29;;;;;;;8.23;5.22;;;;;;;;;;5023773;28;20450;-84
2022/07/20 07:03:55;;;;;;;9.40;5.43;;;;;;;;;;5023191;28;20032;-85
2022/07/20 07:06:24;;;;;;;10.88;6.03;;;;;;;;;;5039355;28;20032;-85
2022/07/20 07:08:50;;;;;;;10.93;5.82;;;;;;;;;;5038760;28;20048;-86
2022/07/20 07:11:16;;;;;;;9.90;5.53;;;;;;;;;;5053400;28;20028;-85
2022/07/20 07:13:42;;;;;;;9.10;5.32;;;;;;;;;;5056426;28;20013;-86
2022/07/20 07:16:08;;;;;;;10.02;5.65;;;;;;;;;;5040689;28;20032;-85
2022/07/20 07:18:34;;;;;;;11.65;4.97;;;;;;;;;;5061875;28;20017;-85
2022/07/20 07:21:00;;;;;;;8.15;5.43;;;;;;;;;;5042243;28;20071;-86
2022/07/20 07:23:26;;;;;;;6.55;5.07;;;;;;;;;;5044676;28;20029;-86
2022/07/20 07:25:52;;;;;;;10.07;5.82;;;;;;;;;;5058637;28;20017;-85
2022/07/20 07:28:19;;;;;;;8.98;4.95;;;;;;;;;;5044028;28;20091;-86
2022/07/20 07:30:45;;;;;;;6.25;4.97;;;;;;;;;;5039691;28;20464;-85
2022/07/20 07:33:11;;;;;;;6.82;4.30;;;;;;;;;;5052437;28;20025;-85
2022/07/20 07:35:37;;;;;;;8.23;4.30;;;;;;;;;;5059115;28;20107;-86
2022/07/20 07:38:03;;;;;;;8.93;4.25;;;;;;;;;;5044045;28;20017;-85
2022/07/20 07:40:29;;;;;;;8.65;4.38;;;;;;;;;;5050059;28;20021;-85
2022/07/20 07:42:55;;;;;;;7.13;4.20;;;;;;;;;;5056893;28;20029;-85
2022/07/20 07:45:21;;;;;;;6.65;4.60;;;;;;;;;;5043666;28;20544;-86
2022/07/20 07:47:47;;;;;;;7.68;4.43;;;;;;;;;;5040402;28;20433;-86
2022/07/20 07:50:13;;;;;;;8.07;4.18;;;;;;;;;;5055406;28;20024;-84
2022/07/20 07:52:39;;;;;;;8.07;4.22;;;;;;;;;;5056578;28;20021;-85
2022/07/20 07:55:05;;;;;;;6.28;4.28;;;;;;;;;;5055420;28;20024;-85
2022/07/20 07:57:32;;;;;;;11.35;4.28;;;;;;;;;;5035845;28;20479;-85
2022/07/20 07:59:58;;;;;;;6.80;4.60;;;;;;;;;;5036781;28;20052;-85
2022/07/20 08:02:24;;;;;;;7.13;4.47;;;;;;;;;;5053786;28;20039;-85
2022/07/20 08:04:50;;;;;;;9.75;4.00;;;;;;;;;;5037031;28;20029;-87
2022/07/20 08:07:16;;;;;;;6.90;3.92;;;;;;;;;;5031954;28;20033;-87
2022/07/20 08:09:42;;;;;;;8.98;3.95;;;;;;;;;;5048849;28;20025;-85
2022/07/20 08:12:08;;;;;;;15.35;4.43;;;;;;;;;;5053614;28;20021;-85
2022/07/20 08:14:34;;;;;;;8.63;3.92;;;;;;;;;;5068263;28;20482;-86
2022/07/20 08:17:00;;;;;;;6.88;4.10;;;;;;;;;;5076631;28;20021;-85
2022/07/20 08:19:26;;;;;;;6.97;3.70;;;;;;;;;;5038400;28;20033;-86
2022/07/20 08:21:52;;;;;;;9.63;3.85;;;;;;;;;;5049480;28;20028;-86
2022/07/20 08:24:18;;;;;;;6.60;3.88;;;;;;;;;;5053613;28;20063;-85
2022/07/20 08:26:44;;;;;;;6.90;3.95;;;;;;;;;;5034469;28;20038;-86
2022/07/20 08:29:10;;;;;;;7.50;3.63;;;;;;;;;;5054890;28;20021;-86
2022/07/20 08:31:36;;;;;;;7.72;3.28;;;;;;;;;;5057715;28;20021;-85
2022/07/20 08:34:02;;;;;;;7.00;3.65;;;;;;;;;;5062413;28;20054;-86
2022/07/20 08:36:28;;;;;;;6.85;3.80;;;;;;;;;;5056576;28;20036;-88
2022/07/20 08:38:54;;;;;;;6.78;3.13;;;;;;;;;;5041272;28;20022;-86
2022/07/20 08:41:21;;;;;;;7.35;2.88;;;;;;;;;;5037761;28;20033;-86
2022/07/20 08:43:47;;;;;;;4.78;2.90;;;;;;;;;;5035497;28;20025;-86
2022/07/20 08:46:13;;;;;;;8.88;3.15;;;;;;;;;;5053127;28;20027;-87
2022/07/20 08:48:41;;;;;;;8.35;3.35;;;;;;;;;;5054364;28;20067;-86
2022/07/20 08:51:08;;;;;;;6.75;3.30;;;;;;;;;;5036118;28;20075;-86
2022/07/20 08:53:34;;;;;;;5.68;2.95;;;;;;;;;;5035134;28;20024;-87
2022/07/20 08:56:00;;;;;;;5.50;2.90;;;;;;;;;;5037794;28;20163;-85
2022/07/20 08:58:26;;;;;;;5.95;3.20;;;;;;;;;;5033703;28;20410;-87
2022/07/20 09:00:52;;;;;;;7.40;2.70;;;;;;;;;;5027976;28;20089;-87
2022/07/20 09:03:18;;;;;;;5.65;3.25;;;;;;;;;;5057290;28;20090;-88
2022/07/20 09:05:44;;;;;;;6.90;2.95;;;;;;;;;;5068082;28;20108;-83
2022/07/20 09:08:15;;;;;;;6.55;3.00;;;;;;;;;;5055212;28;20032;-85
2022/07/20 09:10:43;;;;;;;5.80;2.40;;;;;;;;;;5052472;28;20028;-85
2022/07/20 09:13:13;;;;;;;7.03;2.90;;;;;;;;;;5034371;28;20029;-87
2022/07/20 09:15:47;;;;;;;5.45;2.33;;;;;;;;;;5032867;28;20025;-89
2022/07/20 09:18:24;;;;;;;5.28;2.63;;;;;;;;;;5027875;28;20071;-89
2022/07/20 09:20:50;;;;;;;4.97;2.15;;;;;;;;;;5040838;28;20027;-88
2022/07/20 09:23:22;;;;;;;5.97;2.70;;;;;;;;;;5035173;28;20025;-86
2022/07/20 09:25:53;;;;;;;8.90;3.40;;;;;;;;;;5069348;28;20032;-87
2022/07/20 09:28:20;;;;;;;5.40;2.55;;;;;;;;;;5055657;28;20045;-86
2022/07/20 09:30:56;;;;;;;5.03;2.65;;;;;;;;;;5057917;28;20025;-89
2022/07/20 09:33:30;;;;;;;5.75;2.80;;;;;;;;;;5035882;28;20029;-90
2022/07/20 09:35:58;;;;;;;7.03;2.72;;;;;;;;;;5035990;28;20014;-87
2022/07/20 09:38:39;;;;;;;7.35;2.50;;;;;;;;;;5052572;28;20021;-87
2022/07/20 09:41:07;;;;;;;5.25;2.50;;;;;;;;;;5044637;28;20029;-88
2022/07/20 09:43:37;;;;;;;4.88;2.40;;;;;;;;;;5039908;28;20066;-88
2022/07/20 09:46:10;;;;;;;4.50;2.20;;;;;;;;;;5035678;28;20025;-86
2022/07/20 09:48:44;;;;;;;5.35;2.58;;;;;;;;;;5049727;28;20069;-88
2022/07/20 09:51:17;;;;;;;7.13;2.80;;;;;;;;;;5037187;28;20043;-86
2022/07/20 09:53:43;;;;;;;7.43;2.72;;;;;;;;;;5054378;28;20084;-85
2022/07/20 09:56:09;;;;;;;5.10;2.80;;;;;;;;;;5055918;28;20725;-88
2022/07/20 09:58:35;;;;;;;5.28;2.47;;;;;;;;;;5034692;28;20032;-86
2022/07/20 10:01:02;;;;;;;6.18;2.55;;;;;;;;;;5055651;28;20455;-88
2022/07/20 10:03:29;;;;;;;7.38;2.47;;;;;;;;;;5035663;28;20061;-88
2022/07/20 10:05:55;;;;;;;7.47;2.85;;;;;;;;;;5035963;28;20029;-87
2022/07/20 10:08:21;;;;;;;5.97;2.55;;;;;;;;;;5054100;28;20078;-88
2022/07/20 10:10:48;;;;;;;3.95;2.20;;;;;;;;;;5030050;28;20025;-86
2022/07/20 10:13:14;;;;;;;5.68;2.25;;;;;;;;;;5035613;28;20021;-88
2022/07/20 10:15:49;;;;;;;4.78;2.05;;;;;;;;;;5035775;28;20126;-88
2022/07/20 10:18:15;;;;;;;6.68;2.70;;;;;;;;;;5053387;28;20025;-88
2022/07/20 10:20:41;;;;;;;5.95;2.10;;;;;;;;;;5064620;28;20036;-86
2022/07/20 10:23:17;;;;;;;3.80;2.20;;;;;;;;;;5074010;28;20336;-85
2022/07/20 10:25:43;;;;;;;6.72;2.05;;;;;;;;;;5038611;28;20410;-89
2022/07/20 10:28:24;;;;;;;5.05;2.22;;;;;;;;;;5054359;28;20053;-86
2022/07/20 10:30:54;;;;;;;5.65;2.42;;;;;;;;;;5057027;28;20040;-89
2022/07/20 10:33:21;;;;;;;5.40;2.15;;;;;;;;;;5039071;28;20040;-89
2022/07/20 10:35:48;;;;;;;6.57;2.35;;;;;;;;;;5037908;28;20032;-88
2022/07/20 10:38:20;;;;;;;3.78;2.03;;;;;;;;;;5053951;28;20491;-88
2022/07/20 10:44:06;;;;;;;6.00;2.22;;;;;;;;;;5046642;28;20517;-88
2022/07/20 10:46:33;;;;;;;4.80;2.33;;;;;;;;;;5055436;28;20021;-87
2022/07/20 10:48:59;;;;;;;6.13;2.25;;;;;;;;;;5048394;28;20033;-85
2022/07/20 10:51:25;;;;;;;6.20;2.35;;;;;;;;;;5039661;28;20124;-86
2022/07/20 10:53:51;;;;;;;5.80;2.30;;;;;;;;;;5055960;28;20025;-86
2022/07/20 10:56:28;;;;;;;4.40;2.30;;;;;;;;;;5055155;28;20576;-84
2022/07/20 10:58:59;;;;;;;4.40;2.25;;;;;;;;;;5053412;28;20033;-86
2022/07/20 11:01:25;;;;;;;6.38;2.58;;;;;;;;;;5054420;28;20044;-86
2022/07/20 11:03:51;;;;;;;5.57;2.50;;;;;;;;;;5054070;28;20120;-87
2022/07/20 11:06:20;;;;;;;4.72;2.20;;;;;;;;;;5038209;28;20039;-88
2022/07/20 11:08:49;;;;;;;6.45;2.50;;;;;;;;;;5055089;28;20027;-88
2022/07/20 11:11:20;;;;;;;6.45;2.38;;;;;;;;;;5052252;28;20036;-85
2022/07/20 11:13:46;;;;;;;5.70;2.55;;;;;;;;;;5035627;28;20026;-86
2022/07/20 11:16:13;;;;;;;5.13;2.50;;;;;;;;;;5035903;28;20642;-87
2022/07/20 11:18:39;;;;;;;5.95;2.47;;;;;;;;;;5034798;28;20068;-85
2022/07/20 11:21:07;;;;;;;3.90;2.22;;;;;;;;;;5046614;28;20035;-86
2022/07/20 11:23:42;;;;;;;6.05;2.42;;;;;;;;;;5037020;28;20123;-87
2022/07/20 11:26:08;;;;;;;4.20;2.20;;;;;;;;;;5049786;28;20108;-88
2022/07/20 11:28:53;;;;;;;6.10;2.40;;;;;;;;;;5051246;28;20032;-87
2022/07/20 11:31:20;;;;;;;4.57;2.50;;;;;;;;;;5034272;28;20028;-87
2022/07/20 11:33:48;;;;;;;5.32;2.50;;;;;;;;;;5036999;28;20025;-88
2022/07/20 11:36:37;;;;;;;6.07;3.40;;;;;;;;;;5054810;28;20367;-86
2022/07/20 11:39:05;;;;;;;5.00;2.22;;;;;;;;;;5039082;28;20025;-87
2022/07/20 11:41:31;;;;;;;5.40;2.50;;;;;;;;;;5049850;28;20056;-86
2022/07/20 11:43:58;;;;;;;5.25;2.28;;;;;;;;;;5035827;28;20021;-86
2022/07/20 11:46:29;;;;;;;6.35;2.67;;;;;;;;;;5034716;28;20028;-85
2022/07/20 11:48:56;;;;;;;5.22;2.22;;;;;;;;;;5037435;28;20121;-87
2022/07/20 11:51:23;;;;;;;5.28;2.40;;;;;;;;;;5049697;28;20035;-86
2022/07/20 11:53:49;;;;;;;4.05;2.10;;;;;;;;;;5054717;28;20037;-86
2022/07/20 11:56:17;;;;;;;4.78;1.70;;;;;;;;;;5038026;28;20028;-86
2022/07/20 11:58:44;;;;;;;5.57;2.17;;;;;;;;;;5053982;28;20043;-84
2022/07/20 12:01:15;;;;;;;5.00;2.30;;;;;;;;;;5062307;28;20509;-84
2022/07/20 12:03:42;;;;;;;6.13;2.33;;;;;;;;;;5051141;28;20211;-86
2022/07/20 12:06:12;;;;;;;4.97;2.10;;;;;;;;;;5053630;28;20021;-86
2022/07/20 12:08:39;;;;;;;4.80;2.30;;;;;;;;;;5066162;28;20394;-85
2022/07/20 12:11:06;;;;;;;4.38;2.35;;;;;;;;;;5051084;28;20029;-85
2022/07/20 12:13:43;;;;;;;4.13;1.85;;;;;;;;;;5035913;28;20689;-89
2022/07/20 12:16:09;;;;;;;3.90;1.90;;;;;;;;;;5053906;28;20025;-89
2022/07/20 12:18:39;;;;;;;5.53;2.05;;;;;;;;;;5053864;28;20025;-88
2022/07/20 12:21:06;;;;;;;4.95;1.98;;;;;;;;;;5072228;28;20056;-87
2022/07/20 12:23:33;;;;;;;5.28;2.33;;;;;;;;;;5069411;28;20021;-88
2022/07/20 12:25:59;;;;;;;3.70;1.90;;;;;;;;;;5036701;28;20107;-85
2022/07/20 12:28:35;;;;;;;4.82;1.77;;;;;;;;;;5053150;28;20066;-86
2022/07/20 12:31:17;;;;;;;4.97;1.98;;;;;;;;;;5037036;28;20121;-85
2022/07/20 12:34:02;;;;;;;7.03;2.10;;;;;;;;;;5029790;28;20032;-85
2022/07/20 12:36:48;;;;;;;5.68;2.00;;;;;;;;;;5036111;28;20029;-85
2022/07/20 12:39:34;;;;;;;5.00;1.98;;;;;;;;;;5053279;28;20025;-84
2022/07/20 12:42:15;;;;;;;4.95;2.05;;;;;;;;;;5053990;28;20124;-85
2022/07/20 12:44:42;;;;;;;9.20;2.45;;;;;;;;;;5035039;28;20509;-87
2022/07/20 12:47:09;;;;;;;4.35;1.77;;;;;;;;;;5036634;28;20032;-87
2022/07/20 12:49:35;;;;;;;5.65;2.00;;;;;;;;;;5053285;28;20433;-86
2022/07/20 12:52:01;;;;;;;4.57;2.10;;;;;;;;;;5036009;28;20017;-85
2022/07/20 12:54:27;;;;;;;5.35;2.38;;;;;;;;;;5043237;28;20025;-86
2022/07/20 12:56:55;;;;;;;4.00;1.90;;;;;;;;;;5051121;28;20032;-85
2022/07/20 12:59:21;;;;;;;4.40;1.90;;;;;;;;;;5034429;28;20332;-84
2022/07/20 13:01:48;;;;;;;4.25;2.05;;;;;;;;;;5053083;28;20104;-84
2022/07/20 13:04:24;;;;;;;4.32;2.05;;;;;;;;;;5052696;28;20052;-85
2022/07/20 13:06:51;;;;;;;4.07;1.95;;;;;;;;;;5062390;28;20017;-84
2022/07/20 13:09:18;;;;;;;4.88;2.10;;;;;;;;;;5036032;28;20100;-84
2022/07/20 13:11:45;;;;;;;4.82;1.98;;;;;;;;;;5035289;28;20033;-85
2022/07/20 13:14:11;;;;;;;4.10;1.92;;;;;;;;;;5055137;28;20053;-85
2022/07/20 13:16:38;;;;;;;4.65;2.15;;;;;;;;;;5063452;28;20028;-85
2022/07/20 13:19:04;;;;;;;5.07;1.92;;;;;;;;;;5053758;28;20050;-86
2022/07/20 13:21:32;;;;;;;6.25;2.10;;;;;;;;;;5034039;28;20045;-87
2022/07/20 13:23:58;;;;;;;4.68;1.75;;;;;;;;;;5053081;28;20029;-87
2022/07/20 13:26:24;;;;;;;6.03;2.10;;;;;;;;;;5033609;28;20471;-82
2022/07/20 13:28:50;;;;;;;6.45;2.30;;;;;;;;;;5051000;28;20796;-85
2022/07/20 13:31:16;;;;;;;3.75;1.90;;;;;;;;;;5053284;28;20025;-86
2022/07/20 13:33:42;;;;;;;7.10;2.22;;;;;;;;;;5053745;28;20039;-86
2022/07/20 13:36:09;;;;;;;5.10;1.90;;;;;;;;;;5037059;28;20050;-85
2022/07/20 13:38:35;;;;;;;3.95;1.77;;;;;;;;;;5053528;28;20025;-85
2022/07/20 13:41:02;;;;;;;5.93;2.53;;;;;;;;;;5053117;28;20033;-84
2022/07/20 13:43:28;;;;;;;4.35;2.45;;;;;;;;;;5050414;28;20029;-85
2022/07/20 13:45:54;;;;;;;4.80;2.13;;;;;;;;;;5057478;28;20031;-84
2022/07/20 13:48:20;;;;;;;4.40;1.90;;;;;;;;;;5054766;28;20025;-85
2022/07/20 13:50:48;;;;;;;4.88;2.10;;;;;;;;;;5033537;28;20029;-85
2022/07/20 13:53:14;;;;;;;3.90;2.00;;;;;;;;;;5051606;28;20086;-86
2022/07/20 13:55:40;;;;;;;5.03;2.03;;;;;;;;;;5053558;28;20024;-88
2022/07/20 13:58:07;;;;;;;4.32;1.83;;;;;;;;;;5046128;28;20029;-85
2022/07/20 14:00:33;;;;;;;4.20;2.20;;;;;;;;;;5040882;28;20028;-85
2022/07/20 14:02:59;;;;;;;5.53;2.10;;;;;;;;;;5051466;28;20486;-86
2022/07/20 14:05:25;;;;;;;7.20;2.47;;;;;;;;;;5036581;28;20533;-86
2022/07/20 14:07:51;;;;;;;5.95;2.10;;;;;;;;;;5063727;28;20039;-86
2022/07/20 14:10:17;;;;;;;4.78;2.13;;;;;;;;;;5041857;28;20047;-85
2022/07/20 14:12:43;;;;;;;4.43;1.83;;;;;;;;;;5047710;28;20108;-84
2022/07/20 14:15:09;;;;;;;4.18;2.03;;;;;;;;;;5056516;28;20509;-85
2022/07/20 14:17:39;;;;;;;5.95;2.03;;;;;;;;;;5036599;28;20108;-85
2022/07/20 14:20:06;;;;;;;5.43;1.88;;;;;;;;;;5054859;28;20036;-86
2022/07/20 14:22:33;;;;;;;3.72;2.03;;;;;;;;;;5037570;28;20554;-84
2022/07/20 14:24:59;;;;;;;4.25;2.00;;;;;;;;;;5054088;28;20394;-85
2022/07/20 14:27:25;;;;;;;5.60;2.40;;;;;;;;;;5048537;28;20398;-85
2022/07/20 14:29:51;;;;;;;3.80;1.80;;;;;;;;;;5055739;28;20025;-84
2022/07/20 14:32:18;;;;;;;4.10;1.95;;;;;;;;;;5055279;28;20036;-84
2022/07/20 14:34:44;;;;;;;4.35;2.25;;;;;;;;;;5055324;28;20040;-85
2022/07/20 14:37:11;;;;;;;4.97;2.20;;;;;;;;;;5064962;28;20052;-84
2022/07/20 14:39:37;;;;;;;4.78;2.53;;;;;;;;;;5038724;28;20032;-85
2022/07/20 14:42:04;;;;;;;5.85;2.40;;;;;;;;;;5055792;28;20036;-86
2022/07/20 14:44:30;;;;;;;4.55;1.98;;;;;;;;;;5056190;28;20037;-86
2022/07/20 14:46:56;;;;;;;4.53;1.95;;;;;;;;;;5052193;28;20047;-86
2022/07/20 14:49:22;;;;;;;5.55;2.03;;;;;;;;;;5059426;28;20025;-85